Hof-Plauen Airport


Codes: EDQM/HOQ
Name: Hof-Plauen Airport
City: Hof
Country: Germany
Elevation: 1959 ft.
Wikipedia:

Photos at Hof-Plauen Airport


   Photos courtesy of SpottingLog. You can add your own sightings and photos by signing up for a free trial today.



No photos found.

Weather at Hof-Plauen Airport


Time (UTC)DescriptionTempratureWindCloud coverageVisibilityPressureHumidity
19-Apr-2024 03:00Light Rain2°C11 mph, SW40%10000m1014hPa89%
19-Apr-2024 06:00Broken Clouds2°C16 mph, SW60%10000m1014hPa88%
19-Apr-2024 09:00Light Snow2°C18 mph, N80%0m1011hPa94%
19-Apr-2024 12:00Snow1°C18 mph, SW100%38m1008hPa98%
19-Apr-2024 15:00Snow0°C13 mph, SW100%45m1006hPa99%
19-Apr-2024 18:00Light Rain2°C11 mph, W100%110m1005hPa99%
19-Apr-2024 21:00Snow2°C11 mph, W100%10000m1007hPa95%
20-Apr-2024 00:00Light Snow0°C16 mph, SW100%497m1007hPa98%
20-Apr-2024 03:00Snow1°C11 mph, NW100%26m1008hPa99%
20-Apr-2024 06:00Snow0°C13 mph, NW100%24m1013hPa99%
20-Apr-2024 09:00Light Snow0°C11 mph, N100%117m1017hPa99%
20-Apr-2024 12:00Light Snow2°C11 mph, N95%5792m1019hPa84%
20-Apr-2024 15:00Light Snow3°C9 mph, N95%10000m1020hPa78%
20-Apr-2024 18:00Light Snow-0°C2 mph, NE91%10000m1021hPa91%
20-Apr-2024 21:00Overcast Clouds-3°C0 mph, SE100%10000m1023hPa90%
21-Apr-2024 00:00Overcast Clouds-3°C2 mph, N98%10000m1024hPa90%
21-Apr-2024 03:00Scattered Clouds-4°C2 mph, NE44%10000m1025hPa92%
21-Apr-2024 06:00Scattered Clouds-1°C7 mph, NE35%10000m1025hPa88%
21-Apr-2024 09:00Few Clouds2°C11 mph, NE21%10000m1025hPa66%
21-Apr-2024 12:00Scattered Clouds5°C11 mph, NE28%10000m1025hPa55%
21-Apr-2024 15:00Light Snow4°C9 mph, NE100%10000m1024hPa60%
21-Apr-2024 18:00Light Snow0°C4 mph, NE98%10000m1025hPa83%
21-Apr-2024 21:00Broken Clouds-2°C2 mph, NE52%10000m1026hPa87%
22-Apr-2024 00:00Broken Clouds-3°C2 mph, N54%10000m1026hPa88%
22-Apr-2024 03:00Scattered Clouds-3°C2 mph, NE26%10000m1026hPa93%
22-Apr-2024 06:00Light Snow-0°C2 mph, N61%0m1025hPa91%
22-Apr-2024 09:00Light Snow2°C7 mph, NE97%9097m1024hPa82%
22-Apr-2024 12:00Light Snow4°C9 mph, NE99%10000m1023hPa66%
22-Apr-2024 15:00Overcast Clouds5°C9 mph, NE99%10000m1021hPa56%
22-Apr-2024 18:00Light Rain2°C7 mph, E100%10000m1022hPa85%
22-Apr-2024 21:00Light Snow0°C4 mph, E100%10000m1023hPa93%
23-Apr-2024 00:00Overcast Clouds-2°C4 mph, E94%10000m1022hPa92%
23-Apr-2024 03:00Scattered Clouds-4°C4 mph, E49%10000m1021hPa91%
23-Apr-2024 06:00Broken Clouds1°C7 mph, E64%10000m1020hPa73%
23-Apr-2024 09:00Broken Clouds6°C9 mph, NE62%10000m1018hPa57%
23-Apr-2024 12:00Broken Clouds8°C11 mph, E79%10000m1016hPa48%
23-Apr-2024 15:00Overcast Clouds8°C11 mph, NE100%10000m1014hPa50%
23-Apr-2024 18:00Broken Clouds3°C11 mph, NE79%10000m1015hPa74%
23-Apr-2024 21:00Few Clouds-1°C7 mph, NE12%10000m1016hPa91%
24-Apr-2024 00:00Clear Sky-2°C4 mph, NE7%10000m1016hPa91%